createdAt,value
2023-04-29T00:02:05.273Z,19.27
2023-04-29T00:04:35.608Z,19.05
2023-04-29T00:07:05.293Z,20.15
2023-04-29T00:09:34.859Z,20.40
2023-04-29T00:12:04.837Z,19.33
2023-04-29T00:14:35.891Z,21.58
2023-04-29T00:17:07.196Z,21.13
2023-04-29T00:19:38.650Z,19.67
2023-04-29T00:22:10.814Z,22.75
2023-04-29T00:24:47.633Z,23.80
2023-04-29T00:27:31.362Z,21.60
2023-04-29T00:30:06.035Z,20.85
2023-04-29T00:32:36.508Z,20.58
2023-04-29T00:35:06.013Z,20.25
2023-04-29T00:37:36.182Z,21.80
2023-04-29T00:40:06.588Z,22.17
2023-04-29T00:42:36.055Z,20.77
2023-04-29T00:45:08.333Z,22.70
2023-04-29T00:47:37.925Z,20.42
2023-04-29T00:50:09.013Z,20.88
2023-04-29T00:52:39.672Z,21.48
2023-04-29T00:55:10.137Z,18.50
2023-04-29T00:57:39.756Z,21.55
2023-04-29T01:00:13.095Z,19.25
2023-04-29T01:02:42.793Z,21.92
2023-04-29T01:05:12.120Z,21.30
2023-04-29T01:07:45.149Z,19.85
2023-04-29T01:10:16.917Z,20.05
2023-04-29T01:12:55.131Z,18.25
2023-04-29T01:15:32.622Z,19.07
2023-04-29T01:18:08.066Z,21.00
2023-04-29T01:20:37.892Z,19.52
2023-04-29T01:23:10.193Z,20.13
2023-04-29T01:25:43.716Z,20.30
2023-04-29T01:28:35.941Z,19.23
2023-04-29T01:31:10.644Z,20.02
2023-04-29T01:33:43.974Z,19.15
2023-04-29T01:36:18.629Z,17.83
2023-04-29T01:38:55.009Z,20.58
2023-04-29T01:41:29.812Z,18.45
2023-04-29T01:44:10.140Z,19.63
2023-04-29T01:46:41.004Z,18.65
2023-04-29T01:49:11.079Z,18.20
2023-04-29T01:51:40.358Z,19.20
2023-04-29T01:54:10.733Z,16.67
2023-04-29T01:56:41.565Z,16.13
2023-04-29T01:59:23.138Z,18.77
2023-04-29T02:02:07.849Z,15.77
2023-04-29T02:04:41.418Z,14.55
2023-04-29T02:07:10.950Z,16.58
2023-04-29T02:09:40.334Z,16.48
2023-04-29T02:12:14.609Z,16.30
2023-04-29T02:14:44.526Z,15.85
2023-04-29T02:17:13.722Z,17.15
2023-04-29T02:19:47.007Z,15.15
2023-04-29T02:22:16.288Z,15.25
2023-04-29T02:24:46.587Z,14.25
2023-04-29T02:27:17.157Z,14.27
2023-04-29T02:29:46.883Z,15.57
2023-04-29T02:32:20.111Z,16.33
2023-04-29T02:34:49.388Z,15.18
2023-04-29T02:37:18.555Z,14.82
2023-04-29T02:39:48.836Z,14.43
2023-04-29T02:42:20.366Z,15.20
2023-04-29T02:44:49.866Z,15.73
2023-04-29T02:47:19.441Z,14.48
2023-04-29T02:49:48.723Z,16.00
2023-04-29T02:52:19.280Z,14.80
2023-04-29T02:54:49.732Z,15.57
2023-04-29T02:57:21.187Z,16.23
2023-04-29T02:59:50.672Z,15.15
2023-04-29T03:02:20.190Z,14.90
2023-04-29T03:04:53.932Z,15.68
2023-04-29T03:07:23.304Z,16.45
2023-04-29T03:09:54.973Z,13.95
2023-04-29T03:12:25.891Z,15.15
2023-04-29T03:14:55.289Z,15.52
2023-04-29T03:17:25.718Z,14.77
2023-04-29T03:19:55.076Z,15.93
2023-04-29T03:22:24.711Z,14.85
2023-04-29T03:24:54.665Z,13.95
2023-04-29T03:27:25.870Z,16.67
2023-04-29T03:29:55.266Z,14.73
2023-04-29T03:32:25.040Z,17.10
2023-04-29T03:34:54.707Z,16.15
2023-04-29T03:37:32.614Z,15.80
2023-04-29T03:40:19.120Z,16.08
2023-04-29T03:42:49.750Z,16.48
2023-04-29T03:45:22.733Z,14.65
2023-04-29T03:47:52.507Z,16.40
2023-04-29T03:50:22.007Z,15.13
2023-04-29T03:52:51.521Z,16.33
2023-04-29T03:55:22.019Z,17.38
2023-04-29T03:57:53.018Z,16.10
2023-04-29T04:00:22.526Z,15.70
2023-04-29T04:02:57.585Z,16.25
2023-04-29T04:05:27.317Z,16.52
2023-04-29T04:08:02.280Z,16.60
2023-04-29T04:11:03.143Z,16.00
2023-04-29T04:13:43.520Z,16.33
2023-04-29T04:16:13.805Z,12.68
2023-04-29T04:18:44.004Z,16.75
2023-04-29T04:21:13.774Z,14.95
2023-04-29T04:23:46.697Z,15.68
2023-04-29T04:26:21.731Z,17.20
2023-04-29T04:29:07.069Z,16.50
2023-04-29T04:31:49.495Z,16.90
2023-04-29T04:34:20.623Z,17.98
2023-04-29T04:36:52.692Z,20.58
2023-04-29T04:39:21.904Z,18.27
2023-04-29T04:41:51.322Z,17.98
2023-04-29T04:44:22.840Z,16.40
2023-04-29T04:47:07.408Z,14.85
2023-04-29T04:49:58.953Z,15.18
2023-04-29T04:52:29.091Z,16.45
2023-04-29T04:55:29.941Z,17.48
2023-04-29T04:57:59.678Z,16.13
2023-04-29T05:00:31.195Z,16.58
2023-04-29T05:03:01.011Z,19.55
2023-04-29T05:05:30.407Z,17.02
2023-04-29T05:07:59.665Z,16.08
2023-04-29T05:10:37.959Z,15.88
2023-04-29T05:13:08.762Z,17.92
2023-04-29T05:15:41.162Z,17.77
2023-04-29T05:18:12.156Z,14.68
2023-04-29T05:20:43.892Z,16.15
2023-04-29T05:23:13.407Z,14.90
2023-04-29T05:25:44.963Z,15.18
2023-04-29T05:28:14.601Z,15.63
2023-04-29T05:30:46.073Z,14.93
2023-04-29T05:33:16.258Z,14.30
2023-04-29T05:35:46.384Z,13.98
2023-04-29T05:38:16.271Z,14.90
2023-04-29T05:41:11.620Z,13.65
2023-04-29T05:43:59.160Z,15.23
2023-04-29T05:46:30.174Z,15.82
2023-04-29T05:48:59.842Z,16.27
2023-04-29T05:51:29.379Z,16.05
2023-04-29T05:53:59.815Z,16.88
2023-04-29T05:56:29.937Z,14.90
2023-04-29T05:58:59.417Z,15.63
2023-04-29T06:01:30.195Z,16.58
2023-04-29T06:04:01.448Z,17.50
2023-04-29T06:06:49.569Z,17.92
2023-04-29T06:09:50.877Z,16.60
2023-04-29T06:12:20.330Z,15.73
2023-04-29T06:14:50.491Z,15.68
2023-04-29T06:17:21.436Z,16.27
2023-04-29T06:19:50.689Z,16.60
2023-04-29T06:22:20.130Z,18.05
2023-04-29T06:24:53.155Z,15.63
2023-04-29T06:27:29.562Z,15.45
2023-04-29T06:29:59.418Z,15.18
2023-04-29T06:32:31.942Z,14.80
2023-04-29T06:35:02.508Z,14.10
2023-04-29T06:37:50.184Z,13.93
2023-04-29T06:40:32.356Z,14.32
2023-04-29T06:43:37.548Z,13.32
2023-04-29T06:46:25.390Z,11.40
2023-04-29T06:49:06.967Z,13.23
2023-04-29T06:51:37.179Z,11.38
2023-04-29T06:54:06.555Z,11.93
2023-04-29T06:56:35.892Z,11.65
2023-04-29T06:59:05.680Z,12.60
2023-04-29T07:01:38.264Z,13.35
2023-04-29T07:04:09.214Z,14.80
2023-04-29T07:06:38.451Z,13.25
2023-04-29T07:09:09.154Z,12.07
2023-04-29T07:11:39.436Z,11.88
2023-04-29T07:14:11.421Z,10.32
2023-04-29T07:19:19.823Z,10.30
2023-04-29T07:21:49.795Z,9.60
2023-04-29T07:24:19.617Z,8.68
2023-04-29T07:26:50.332Z,10.07
2023-04-29T07:29:20.480Z,9.07
2023-04-29T07:31:50.128Z,9.23
2023-04-29T07:34:21.075Z,10.00
2023-04-29T07:36:51.433Z,8.68
2023-04-29T07:39:21.191Z,9.27
2023-04-29T07:41:54.849Z,11.00
2023-04-29T07:44:36.980Z,11.18
2023-04-29T07:47:07.318Z,9.95
2023-04-29T07:49:39.066Z,9.88
2023-04-29T07:54:44.050Z,9.57
2023-04-29T07:57:14.174Z,9.85
2023-04-29T07:59:44.310Z,7.85
2023-04-29T08:02:20.028Z,8.98
2023-04-29T08:05:09.262Z,8.63
2023-04-29T08:07:48.837Z,8.52
2023-04-29T08:10:23.073Z,8.82
2023-04-29T08:12:56.057Z,9.18
2023-04-29T08:15:27.001Z,9.30
2023-04-29T08:17:59.152Z,7.55
2023-04-29T08:20:32.251Z,8.70
2023-04-29T08:23:05.734Z,7.07
2023-04-29T08:25:35.447Z,6.88
2023-04-29T08:28:06.224Z,7.25
2023-04-29T08:30:36.811Z,9.55
2023-04-29T08:33:09.492Z,8.45
2023-04-29T08:35:43.109Z,10.00
2023-04-29T08:38:13.336Z,9.70
2023-04-29T08:40:44.452Z,10.07
2023-04-29T08:43:14.331Z,8.55
2023-04-29T08:45:44.715Z,9.43
2023-04-29T08:48:14.821Z,9.25
2023-04-29T08:50:48.025Z,7.97
2023-04-29T08:53:19.359Z,10.05
2023-04-29T08:55:50.598Z,9.52
2023-04-29T08:58:20.123Z,9.63
2023-04-29T09:00:50.475Z,9.82
2023-04-29T09:03:27.871Z,8.68
2023-04-29T09:06:00.928Z,8.27
2023-04-29T09:08:30.126Z,10.75
2023-04-29T09:11:01.115Z,9.40
2023-04-29T09:13:34.556Z,9.30
2023-04-29T09:16:07.179Z,9.02
2023-04-29T09:18:46.877Z,9.70
2023-04-29T09:21:21.762Z,10.95
2023-04-29T09:23:55.221Z,9.18
2023-04-29T09:26:26.101Z,9.93
2023-04-29T09:29:09.777Z,9.05
2023-04-29T09:31:41.077Z,10.15
2023-04-29T09:34:14.672Z,8.30
2023-04-29T09:36:47.966Z,8.25
2023-04-29T09:39:19.890Z,9.23
2023-04-29T09:42:03.046Z,8.93
2023-04-29T09:44:45.778Z,6.72
2023-04-29T09:47:25.263Z,7.88
2023-04-29T09:50:22.481Z,6.95
2023-04-29T09:54:07.117Z,10.93
2023-04-29T09:56:59.321Z,7.93
2023-04-29T10:00:23.546Z,7.57
2023-04-29T10:03:14.317Z,5.72
2023-04-29T10:09:59.524Z,8.27
2023-04-29T10:15:57.294Z,8.07
2023-04-29T10:18:39.420Z,7.22
2023-04-29T10:21:09.854Z,7.18
2023-04-29T10:23:41.001Z,6.82
2023-04-29T10:26:43.715Z,6.97
2023-04-29T10:32:51.747Z,5.72
2023-04-29T10:35:26.101Z,7.15
2023-04-29T10:37:57.710Z,7.65
2023-04-29T10:40:38.899Z,4.65
2023-04-29T10:43:08.788Z,7.68
2023-04-29T10:45:40.362Z,8.38
2023-04-29T10:48:22.345Z,7.60
2023-04-29T10:51:05.300Z,7.13
2023-04-29T10:53:37.187Z,9.52
2023-04-29T10:56:15.883Z,5.63
2023-04-29T10:58:48.173Z,6.20
2023-04-29T11:01:19.617Z,5.40
2023-04-29T11:04:00.309Z,6.63
2023-04-29T11:06:42.049Z,7.90
2023-04-29T11:09:14.688Z,6.82
2023-04-29T11:14:56.227Z,5.78
2023-04-29T11:17:35.167Z,8.25
2023-04-29T11:20:08.118Z,6.78
2023-04-29T11:22:41.000Z,7.32
2023-04-29T11:25:23.940Z,8.52
2023-04-29T11:27:59.806Z,9.32
2023-04-29T11:30:31.929Z,7.80
2023-04-29T11:35:33.748Z,8.98
2023-04-29T11:38:04.454Z,7.43
2023-04-29T11:40:34.821Z,7.57
2023-04-29T11:43:04.502Z,7.50
2023-04-29T11:45:37.895Z,6.22
2023-04-29T11:48:07.482Z,7.72
2023-04-29T11:50:38.190Z,5.93
2023-04-29T11:53:09.842Z,5.90
2023-04-29T11:55:42.029Z,6.72
2023-04-29T12:00:42.706Z,6.15
2023-04-29T12:03:16.378Z,8.18
2023-04-29T12:05:50.594Z,5.28
2023-04-29T12:08:22.646Z,5.57
2023-04-29T12:10:54.241Z,5.32
2023-04-29T12:13:25.310Z,5.93
2023-04-29T12:18:27.844Z,6.22
2023-04-29T12:20:59.063Z,4.95
2023-04-29T12:23:28.743Z,6.05
2023-04-29T12:25:58.958Z,5.68
2023-04-29T12:28:29.293Z,7.18
2023-04-29T12:30:59.730Z,7.28
2023-04-29T12:33:30.546Z,7.80
2023-04-29T12:36:02.299Z,5.03
2023-04-29T12:39:01.618Z,6.63
2023-04-29T12:41:42.163Z,7.03
2023-04-29T12:44:12.321Z,6.93
2023-04-29T12:46:50.366Z,6.82
2023-04-29T12:49:20.713Z,8.73
2023-04-29T12:51:53.286Z,7.60
2023-04-29T12:54:23.181Z,6.00
2023-04-29T12:56:52.837Z,7.55
2023-04-29T12:59:23.083Z,7.82
2023-04-29T13:01:56.698Z,6.82
2023-04-29T13:04:27.967Z,7.13
2023-04-29T13:07:00.917Z,6.65
2023-04-29T13:09:34.499Z,7.10
2023-04-29T13:12:04.342Z,8.65
2023-04-29T13:14:34.267Z,7.38
2023-04-29T13:17:04.445Z,7.75
2023-04-29T13:19:46.951Z,8.57
2023-04-29T13:22:22.720Z,8.05
2023-04-29T13:24:57.777Z,7.82
2023-04-29T13:27:27.863Z,8.38
2023-04-29T13:29:58.256Z,6.88
2023-04-29T13:32:41.912Z,6.90
2023-04-29T13:35:15.266Z,7.63
2023-04-29T13:37:46.968Z,6.35
2023-04-29T13:40:20.375Z,8.40
2023-04-29T13:42:59.537Z,6.50
2023-04-29T13:45:41.603Z,7.85
2023-04-29T13:48:26.081Z,8.68
2023-04-29T13:51:49.050Z,8.02
2023-04-29T13:54:48.217Z,11.20
2023-04-29T14:05:38.295Z,12.07
2023-04-29T14:08:16.109Z,11.05
2023-04-29T14:10:52.462Z,11.32
2023-04-29T14:13:22.516Z,12.35
2023-04-29T14:15:52.204Z,11.73
2023-04-29T14:18:31.036Z,9.65
2023-04-29T14:21:02.453Z,10.68
2023-04-29T14:23:34.755Z,11.63
2023-04-29T14:29:00.226Z,13.27
2023-04-29T14:31:31.071Z,13.73
2023-04-29T14:34:00.646Z,12.18
2023-04-29T14:36:30.400Z,11.48
2023-04-29T14:39:01.594Z,10.63
2023-04-29T14:41:37.959Z,12.80
2023-04-29T14:44:12.593Z,12.63
2023-04-29T14:46:42.804Z,12.05
2023-04-29T14:49:15.981Z,12.07
2023-04-29T14:51:45.719Z,11.23
2023-04-29T14:54:30.521Z,10.35
2023-04-29T14:57:05.988Z,10.40
2023-04-29T14:59:47.830Z,8.75
2023-04-29T15:02:18.722Z,9.80
2023-04-29T15:04:49.334Z,10.25
2023-04-29T15:07:20.209Z,7.93
2023-04-29T15:09:57.297Z,9.38
2023-04-29T15:12:29.786Z,8.93
2023-04-29T15:15:03.706Z,11.45
2023-04-29T15:17:36.243Z,9.35
2023-04-29T15:20:06.274Z,9.68
2023-04-29T15:22:40.330Z,7.85
2023-04-29T15:25:13.324Z,9.18
2023-04-29T15:27:46.767Z,8.88
2023-04-29T15:30:34.202Z,10.07
2023-04-29T15:33:07.690Z,9.38
2023-04-29T15:35:40.400Z,9.77
2023-04-29T15:38:22.829Z,11.70
2023-04-29T15:40:58.079Z,9.88
2023-04-29T15:43:49.341Z,8.60
2023-04-29T15:46:20.814Z,9.75
2023-04-29T15:51:23.513Z,10.23
2023-04-29T15:53:53.229Z,8.90
2023-04-29T15:56:23.363Z,8.70
2023-04-29T15:58:56.358Z,10.38
2023-04-29T16:01:28.317Z,10.00
2023-04-29T16:04:01.145Z,10.10
2023-04-29T16:06:34.853Z,8.35
2023-04-29T16:09:09.728Z,7.10
2023-04-29T16:11:52.882Z,8.05
2023-04-29T16:14:25.026Z,9.07
2023-04-29T16:16:59.909Z,9.30
2023-04-29T16:19:29.980Z,8.73
2023-04-29T16:22:00.216Z,8.38
2023-04-29T16:24:29.688Z,8.73
2023-04-29T16:26:58.944Z,8.82
2023-04-29T16:29:29.025Z,9.05
2023-04-29T16:32:00.273Z,10.05
2023-04-29T16:34:29.534Z,11.00
2023-04-29T16:36:59.389Z,8.88
2023-04-29T16:39:29.062Z,8.77
2023-04-29T16:41:59.689Z,9.65
2023-04-29T16:44:29.668Z,10.80
2023-04-29T16:47:00.681Z,10.07
2023-04-29T16:49:29.806Z,10.90
2023-04-29T16:51:58.888Z,12.13
2023-04-29T16:54:28.197Z,25.02
2023-04-29T16:56:57.212Z,11.55
2023-04-29T16:59:26.302Z,10.80
2023-04-29T17:01:56.252Z,11.50
2023-04-29T17:04:28.456Z,9.60
2023-04-29T17:07:02.386Z,28.95
2023-04-29T17:09:31.642Z,11.82
2023-04-29T17:12:03.685Z,9.65
2023-04-29T17:17:01.748Z,10.75
2023-04-29T17:19:33.151Z,12.02
2023-04-29T17:24:32.602Z,9.93
2023-04-29T17:27:01.795Z,9.73
2023-04-29T17:29:31.032Z,9.23
2023-04-29T17:32:02.101Z,7.88
2023-04-29T17:34:34.080Z,8.90
2023-04-29T17:37:03.544Z,10.02
2023-04-29T17:39:33.066Z,8.63
2023-04-29T17:42:02.564Z,9.60
2023-04-29T17:44:32.051Z,10.00
2023-04-29T17:47:01.731Z,11.25
2023-04-29T17:49:31.356Z,10.02
2023-04-29T17:52:04.196Z,11.13
2023-04-29T17:54:33.469Z,9.93
2023-04-29T17:57:03.312Z,10.45
2023-04-29T17:59:32.657Z,8.85
2023-04-29T18:02:02.220Z,10.25
2023-04-29T18:04:32.365Z,9.68
2023-04-29T18:07:02.949Z,8.93
2023-04-29T18:09:32.325Z,9.20
2023-04-29T18:12:04.340Z,10.07
2023-04-29T18:14:34.099Z,10.27
2023-04-29T18:17:03.878Z,9.45
2023-04-29T18:19:33.071Z,10.20
2023-04-29T18:22:03.457Z,9.13
2023-04-29T18:24:35.834Z,9.25
2023-04-29T18:27:05.727Z,9.23
2023-04-29T18:29:34.872Z,9.95
2023-04-29T18:32:06.401Z,9.70
2023-04-29T18:34:37.067Z,11.15
2023-04-29T18:37:07.601Z,8.88
2023-04-29T18:39:36.991Z,10.45
2023-04-29T18:42:06.442Z,12.30
2023-04-29T18:44:35.755Z,11.35
2023-04-29T18:47:06.152Z,10.15
2023-04-29T18:49:37.327Z,10.55
2023-04-29T18:52:09.405Z,10.25
2023-04-29T18:54:39.693Z,10.07
2023-04-29T18:57:08.992Z,11.02
2023-04-29T18:59:38.650Z,11.27
2023-04-29T19:02:08.019Z,10.88
2023-04-29T19:04:38.074Z,11.02
2023-04-29T19:07:10.138Z,7.97
2023-04-29T19:09:39.652Z,10.60
2023-04-29T19:12:09.971Z,11.77
2023-04-29T19:14:39.083Z,11.70
2023-04-29T19:17:08.100Z,10.48
2023-04-29T19:19:37.224Z,12.20
2023-04-29T19:22:07.795Z,11.52
2023-04-29T19:24:38.982Z,11.73
2023-04-29T19:27:09.462Z,12.60
2023-04-29T19:29:38.715Z,10.68
2023-04-29T19:32:08.174Z,13.00
2023-04-29T19:34:37.216Z,12.88
2023-04-29T19:37:06.203Z,10.93
2023-04-29T19:39:35.419Z,10.20
2023-04-29T19:42:06.038Z,12.65
2023-04-29T19:44:35.393Z,11.48
2023-04-29T19:47:04.724Z,10.70
2023-04-29T19:49:34.212Z,10.90
2023-04-29T19:52:03.416Z,11.50
2023-04-29T19:54:32.431Z,11.07
2023-04-29T19:57:02.763Z,14.32
2023-04-29T19:59:33.304Z,12.70
2023-04-29T20:02:05.933Z,13.25
2023-04-29T20:04:39.647Z,11.38
2023-04-29T20:07:33.077Z,12.35
2023-04-29T20:10:09.019Z,12.45
2023-04-29T20:12:42.426Z,11.23
2023-04-29T20:15:22.490Z,12.45
2023-04-29T20:20:27.848Z,15.43
2023-04-29T20:23:03.760Z,14.65
2023-04-29T20:25:33.870Z,14.68
2023-04-29T20:28:06.453Z,14.45
2023-04-29T20:30:37.025Z,15.15
2023-04-29T20:33:07.825Z,14.52
2023-04-29T20:35:38.772Z,14.50
2023-04-29T20:38:08.367Z,14.90
2023-04-29T20:40:37.646Z,15.07
2023-04-29T20:43:06.838Z,14.57
2023-04-29T20:45:38.344Z,15.98
2023-04-29T20:48:11.510Z,16.15
2023-04-29T20:50:42.880Z,15.25
2023-04-29T20:53:11.976Z,15.60
2023-04-29T20:55:42.327Z,14.88
2023-04-29T20:58:12.122Z,16.10
2023-04-29T21:00:42.665Z,17.15
2023-04-29T21:03:12.270Z,16.55
2023-04-29T21:05:41.467Z,16.60
2023-04-29T21:08:10.734Z,15.63
2023-04-29T21:10:40.087Z,17.35
2023-04-29T21:13:09.328Z,15.40
2023-04-29T21:15:38.632Z,17.67
2023-04-29T21:18:09.899Z,18.42
2023-04-29T21:20:38.991Z,19.52
2023-04-29T21:23:08.212Z,18.40
2023-04-29T21:25:39.793Z,18.80
2023-04-29T21:28:09.093Z,20.90
2023-04-29T21:30:38.507Z,21.05
2023-04-29T21:33:09.139Z,24.20
2023-04-29T21:35:39.797Z,25.33
2023-04-29T21:38:08.784Z,26.00
2023-04-29T21:40:41.587Z,25.70
2023-04-29T21:43:11.296Z,27.35
2023-04-29T21:45:40.484Z,29.13
2023-04-29T21:48:15.319Z,29.10
2023-04-29T21:50:44.827Z,30.48
2023-04-29T21:53:16.404Z,33.35
2023-04-29T21:55:46.615Z,32.75
2023-04-29T21:58:16.186Z,30.30
2023-04-29T22:00:58.121Z,31.95
2023-04-29T22:05:57.810Z,28.30
2023-04-29T22:08:27.788Z,29.08
2023-04-29T22:10:56.865Z,32.08
2023-04-29T22:13:26.478Z,30.75
2023-04-29T22:15:55.825Z,29.13
2023-04-29T22:18:24.936Z,30.83
2023-04-29T22:20:54.475Z,30.63
2023-04-29T22:23:25.156Z,30.70
2023-04-29T22:25:54.235Z,30.52
2023-04-29T22:28:23.558Z,29.75
2023-04-29T22:30:52.947Z,32.53
2023-04-29T22:33:21.887Z,28.15
2023-04-29T22:35:50.878Z,26.13
2023-04-29T22:38:19.947Z,28.10
2023-04-29T22:40:54.291Z,24.70
2023-04-29T22:43:24.207Z,23.40
2023-04-29T22:45:53.911Z,22.27
2023-04-29T22:48:24.572Z,22.08
2023-04-29T22:50:56.281Z,18.10
2023-04-29T22:53:25.331Z,19.40
2023-04-29T22:55:56.331Z,19.23
2023-04-29T22:58:25.902Z,19.00
2023-04-29T23:00:57.065Z,19.42
2023-04-29T23:03:26.863Z,19.77
2023-04-29T23:05:59.760Z,21.40
2023-04-29T23:08:29.562Z,21.83
2023-04-29T23:11:01.477Z,21.55
2023-04-29T23:16:02.191Z,20.83
2023-04-29T23:18:31.690Z,21.83
2023-04-29T23:21:00.893Z,21.70
2023-04-29T23:23:30.151Z,20.83
2023-04-29T23:26:00.962Z,21.13
2023-04-29T23:28:30.365Z,22.75
2023-04-29T23:30:59.505Z,22.30
2023-04-29T23:33:28.913Z,24.33
2023-04-29T23:35:59.270Z,22.42
2023-04-29T23:38:28.402Z,26.13
2023-04-29T23:40:57.556Z,23.92
2023-04-29T23:43:35.719Z,24.38
2023-04-29T23:46:04.952Z,24.42
2023-04-29T23:48:34.008Z,24.35
2023-04-29T23:51:04.132Z,22.83
2023-04-29T23:53:33.490Z,24.00
2023-04-29T23:56:02.672Z,25.80
2023-04-29T23:58:33.340Z,23.50
